SHT9PL EGJJ-EGKK
Flight info
| Callsign | SHT9PL |
|---|---|
| Flight time | 0h 30m |
| Altitude | 23000 |
| Route | ORIST L982 VASUX |
| Aircraft | A321/M-SDE3FGHIRWY/LB1 |
Departure
| Time | 2026-05-07 17:34 |
|---|---|
| Airport | Jersey Airport (EGJJ) |
Arrival
| Time | 2026-05-07 18:05 |
|---|---|
| Airport | London Gatwick Airport (EGKK) |
| Time | Latitude | Longitude | Altitude | Speed | Heading |
|---|---|---|---|---|---|
| 2026-05-07 17:09 | 49.20490 | -2.19734 | 282 ft | 0 kts | 353° |
| 2026-05-07 17:24 | 49.20474 | -2.19730 | 285 ft | 4 kts | 343° |
| 2026-05-07 17:24 | 49.20452 | -2.19712 | 285 ft | 4 kts | 306° |
| 2026-05-07 17:25 | 49.20445 | -2.19681 | 280 ft | 1 kts | 264° |
| 2026-05-07 17:29 | 49.20444 | -2.19691 | 282 ft | 5 kts | 264° |
| 2026-05-07 17:29 | 49.20439 | -2.19766 | 280 ft | 7 kts | 263° |
| 2026-05-07 17:30 | 49.20433 | -2.19844 | 280 ft | 8 kts | 264° |
| 2026-05-07 17:30 | 49.20458 | -2.19909 | 281 ft | 9 kts | 337° |
| 2026-05-07 17:30 | 49.20509 | -2.19959 | 280 ft | 9 kts | 298° |
| 2026-05-07 17:30 | 49.20530 | -2.20060 | 280 ft | 11 kts | 289° |
| 2026-05-07 17:31 | 49.20556 | -2.20184 | 282 ft | 14 kts | 286° |
| 2026-05-07 17:31 | 49.20588 | -2.20351 | 281 ft | 20 kts | 286° |
| 2026-05-07 17:31 | 49.20611 | -2.20473 | 280 ft | 5 kts | 286° |
| 2026-05-07 17:31 | 49.20616 | -2.20499 | 280 ft | 0 kts | 286° |
| 2026-05-07 17:32 | 49.20616 | -2.20502 | 280 ft | 1 kts | 286° |
| 2026-05-07 17:32 | 49.20621 | -2.20532 | 282 ft | 8 kts | 282° |
| 2026-05-07 17:33 | 49.20630 | -2.20645 | 281 ft | 12 kts | 284° |
| 2026-05-07 17:33 | 49.20695 | -2.20673 | 283 ft | 11 kts | 50° |
| 2026-05-07 17:33 | 49.20707 | -2.20624 | 280 ft | 0 kts | 77° |
| 2026-05-07 17:33 | 49.20734 | -2.20344 | 281 ft | 71 kts | 81° |
| 2026-05-07 17:34 | 49.20832 | -2.19170 | 295 ft | 147 kts | 82° |
| 2026-05-07 17:34 | 49.20958 | -2.17558 | 969 ft | 154 kts | 82° |
| 2026-05-07 17:34 | 49.21091 | -2.15909 | 1803 ft | 159 kts | 82° |
| 2026-05-07 17:34 | 49.21239 | -2.14162 | 2283 ft | 176 kts | 82° |
| 2026-05-07 17:35 | 49.21404 | -2.12198 | 2683 ft | 198 kts | 82° |
| 2026-05-07 17:35 | 49.21589 | -2.09987 | 3040 ft | 221 kts | 82° |
| 2026-05-07 17:35 | 49.21793 | -2.07620 | 3679 ft | 229 kts | 78° |
| 2026-05-07 17:35 | 49.22492 | -2.05456 | 4490 ft | 232 kts | 40° |
| 2026-05-07 17:36 | 49.23923 | -2.04446 | 5308 ft | 229 kts | 3° |
| 2026-05-07 17:36 | 49.25521 | -2.04341 | 6181 ft | 230 kts | 359° |
| 2026-05-07 17:36 | 49.27138 | -2.04285 | 6914 ft | 240 kts | 358° |
| 2026-05-07 17:36 | 49.28897 | -2.04228 | 7309 ft | 264 kts | 359° |
| 2026-05-07 17:37 | 49.30795 | -2.04157 | 7907 ft | 278 kts | 359° |
| 2026-05-07 17:37 | 49.32743 | -2.04070 | 8708 ft | 282 kts | 360° |
| 2026-05-07 17:37 | 49.34720 | -2.03972 | 9508 ft | 286 kts | 360° |
| 2026-05-07 17:37 | 49.36725 | -2.03867 | 10286 ft | 289 kts | 0° |
| 2026-05-07 17:38 | 49.38748 | -2.03760 | 11052 ft | 293 kts | 360° |
| 2026-05-07 17:38 | 49.40795 | -2.03654 | 11803 ft | 296 kts | 0° |
| 2026-05-07 17:38 | 49.42846 | -2.03546 | 12542 ft | 299 kts | 0° |
| 2026-05-07 17:38 | 49.44939 | -2.03436 | 13267 ft | 303 kts | 0° |
| 2026-05-07 17:39 | 49.47060 | -2.03323 | 13982 ft | 306 kts | 0° |
| 2026-05-07 17:39 | 49.49204 | -2.03210 | 14672 ft | 310 kts | 0° |
| 2026-05-07 17:39 | 49.51371 | -2.03097 | 15352 ft | 313 kts | 0° |
| 2026-05-07 17:39 | 49.53561 | -2.02983 | 16006 ft | 316 kts | 0° |
| 2026-05-07 17:40 | 49.55769 | -2.02871 | 16644 ft | 319 kts | 0° |
| 2026-05-07 17:40 | 49.57973 | -2.02756 | 17264 ft | 322 kts | 0° |
| 2026-05-07 17:40 | 49.60229 | -2.02636 | 17877 ft | 325 kts | 0° |
| 2026-05-07 17:40 | 49.62502 | -2.02516 | 18471 ft | 328 kts | 0° |
| 2026-05-07 17:41 | 49.64797 | -2.02394 | 19052 ft | 332 kts | 0° |
| 2026-05-07 17:41 | 49.67122 | -2.02272 | 19629 ft | 335 kts | 0° |
| 2026-05-07 17:41 | 49.69468 | -2.02149 | 20191 ft | 338 kts | 0° |
| 2026-05-07 17:41 | 49.71826 | -2.02024 | 20735 ft | 341 kts | 0° |
| 2026-05-07 17:42 | 49.74181 | -2.01895 | 21264 ft | 343 kts | 0° |
| 2026-05-07 17:42 | 49.76576 | -2.01755 | 21776 ft | 346 kts | 2° |
| 2026-05-07 17:42 | 49.78962 | -2.01115 | 22268 ft | 351 kts | 15° |
| 2026-05-07 17:42 | 49.81278 | -1.99653 | 22430 ft | 368 kts | 26° |
| 2026-05-07 17:43 | 49.83590 | -1.97775 | 22562 ft | 382 kts | 26° |
| 2026-05-07 17:43 | 49.85987 | -1.95827 | 22695 ft | 395 kts | 26° |
| 2026-05-07 17:43 | 49.88464 | -1.93822 | 22831 ft | 407 kts | 26° |
| 2026-05-07 17:43 | 49.90962 | -1.91809 | 22976 ft | 411 kts | 26° |
| 2026-05-07 17:44 | 49.93492 | -1.89772 | 23009 ft | 409 kts | 26° |
| 2026-05-07 17:44 | 49.96021 | -1.87733 | 23010 ft | 408 kts | 26° |
| 2026-05-07 17:44 | 49.98543 | -1.85690 | 23008 ft | 408 kts | 26° |
| 2026-05-07 17:44 | 50.01059 | -1.83650 | 23009 ft | 408 kts | 26° |
| 2026-05-07 17:45 | 50.03584 | -1.81632 | 23009 ft | 408 kts | 26° |
| 2026-05-07 17:45 | 50.06113 | -1.79636 | 23009 ft | 408 kts | 25° |
| 2026-05-07 17:45 | 50.08650 | -1.77644 | 23008 ft | 408 kts | 25° |
| 2026-05-07 17:45 | 50.11183 | -1.75641 | 23009 ft | 408 kts | 27° |
| 2026-05-07 17:46 | 50.13554 | -1.73214 | 23009 ft | 409 kts | 37° |
| 2026-05-07 17:46 | 50.15705 | -1.70400 | 23007 ft | 409 kts | 40° |
| 2026-05-07 17:46 | 50.17843 | -1.67452 | 23009 ft | 410 kts | 41° |
| 2026-05-07 17:46 | 50.19950 | -1.64446 | 23008 ft | 410 kts | 41° |
| 2026-05-07 17:47 | 50.22043 | -1.61413 | 23011 ft | 410 kts | 42° |
| 2026-05-07 17:47 | 50.24126 | -1.58382 | 22863 ft | 409 kts | 42° |
| 2026-05-07 17:47 | 50.26210 | -1.55360 | 22138 ft | 405 kts | 42° |
| 2026-05-07 17:47 | 50.28265 | -1.52393 | 21682 ft | 398 kts | 41° |
| 2026-05-07 17:48 | 50.30289 | -1.49485 | 21216 ft | 391 kts | 41° |
| 2026-05-07 17:48 | 50.32260 | -1.46664 | 20744 ft | 386 kts | 41° |
| 2026-05-07 17:48 | 50.34229 | -1.43848 | 20277 ft | 380 kts | 41° |
| 2026-05-07 17:48 | 50.36163 | -1.41078 | 19800 ft | 375 kts | 41° |
| 2026-05-07 17:49 | 50.38076 | -1.38329 | 19314 ft | 369 kts | 41° |
| 2026-05-07 17:49 | 50.39957 | -1.35618 | 18845 ft | 364 kts | 41° |
| 2026-05-07 17:49 | 50.41812 | -1.32935 | 18365 ft | 360 kts | 41° |
| 2026-05-07 17:49 | 50.43639 | -1.30282 | 17886 ft | 356 kts | 41° |
| 2026-05-07 17:50 | 50.45425 | -1.27689 | 17432 ft | 352 kts | 41° |
| 2026-05-07 17:50 | 50.47220 | -1.25092 | 16942 ft | 348 kts | 41° |
| 2026-05-07 17:50 | 50.48994 | -1.22524 | 16482 ft | 344 kts | 41° |
| 2026-05-07 17:50 | 50.50747 | -1.19981 | 16018 ft | 341 kts | 41° |
| 2026-05-07 17:51 | 50.52476 | -1.17471 | 15551 ft | 337 kts | 41° |
| 2026-05-07 17:51 | 50.54191 | -1.14979 | 15102 ft | 333 kts | 41° |
| 2026-05-07 17:51 | 50.55861 | -1.12545 | 14659 ft | 330 kts | 41° |
| 2026-05-07 17:51 | 50.57536 | -1.10101 | 14208 ft | 327 kts | 41° |
| 2026-05-07 17:52 | 50.59202 | -1.07675 | 13757 ft | 325 kts | 41° |
| 2026-05-07 17:52 | 50.60851 | -1.05276 | 13315 ft | 322 kts | 41° |
| 2026-05-07 17:52 | 50.62494 | -1.02881 | 12872 ft | 320 kts | 41° |
| 2026-05-07 17:52 | 50.64122 | -1.00499 | 12431 ft | 318 kts | 41° |
| 2026-05-07 17:53 | 50.65741 | -0.98128 | 11982 ft | 316 kts | 41° |
| 2026-05-07 17:53 | 50.67349 | -0.95773 | 11554 ft | 314 kts | 41° |
| 2026-05-07 17:53 | 50.68918 | -0.93466 | 11132 ft | 312 kts | 41° |
| 2026-05-07 17:53 | 50.70503 | -0.91135 | 10701 ft | 310 kts | 41° |
| 2026-05-07 17:54 | 50.72073 | -0.88825 | 10358 ft | 305 kts | 41° |
| 2026-05-07 17:54 | 50.73610 | -0.86562 | 10069 ft | 298 kts | 41° |
| 2026-05-07 17:54 | 50.75118 | -0.84340 | 9881 ft | 295 kts | 41° |
| 2026-05-07 17:54 | 50.76619 | -0.82129 | 9760 ft | 295 kts | 41° |
| 2026-05-07 17:55 | 50.78115 | -0.79923 | 9634 ft | 294 kts | 41° |
| 2026-05-07 17:55 | 50.79627 | -0.77742 | 9385 ft | 293 kts | 36° |
| 2026-05-07 17:55 | 50.81387 | -0.76184 | 9116 ft | 289 kts | 22° |
| 2026-05-07 17:55 | 50.83221 | -0.74922 | 8989 ft | 288 kts | 21° |
| 2026-05-07 17:56 | 50.85045 | -0.73696 | 9014 ft | 289 kts | 21° |
| 2026-05-07 17:56 | 50.86898 | -0.72453 | 9017 ft | 289 kts | 21° |
| 2026-05-07 17:56 | 50.88751 | -0.71211 | 9012 ft | 289 kts | 21° |
| 2026-05-07 17:56 | 50.90609 | -0.69966 | 9005 ft | 289 kts | 21° |
| 2026-05-07 17:57 | 50.92466 | -0.68721 | 9010 ft | 288 kts | 21° |
| 2026-05-07 17:57 | 50.93667 | -0.67912 | 9012 ft | 278 kts | 21° |
| 2026-05-07 17:57 | 50.95960 | -0.66359 | 8979 ft | 259 kts | 21° |
| 2026-05-07 17:57 | 50.97588 | -0.65252 | 8773 ft | 250 kts | 21° |
| 2026-05-07 17:58 | 50.99181 | -0.64165 | 8309 ft | 247 kts | 21° |
| 2026-05-07 17:58 | 51.00746 | -0.63096 | 7732 ft | 249 kts | 21° |
| 2026-05-07 17:58 | 51.02324 | -0.62015 | 7219 ft | 244 kts | 21° |
| 2026-05-07 17:58 | 51.03852 | -0.60966 | 6865 ft | 229 kts | 21° |
| 2026-05-07 17:59 | 51.05254 | -0.59994 | 6590 ft | 214 kts | 21° |
| 2026-05-07 17:59 | 51.06607 | -0.59054 | 6095 ft | 210 kts | 21° |
| 2026-05-07 17:59 | 51.07938 | -0.58117 | 5605 ft | 208 kts | 24° |
| 2026-05-07 17:59 | 51.09094 | -0.56736 | 5046 ft | 211 kts | 48° |
| 2026-05-07 18:00 | 51.09813 | -0.54702 | 4523 ft | 213 kts | 74° |
| 2026-05-07 18:00 | 51.10134 | -0.52427 | 4207 ft | 208 kts | 76° |
| 2026-05-07 18:00 | 51.10448 | -0.50248 | 3908 ft | 202 kts | 76° |
| 2026-05-07 18:00 | 51.10754 | -0.48109 | 3626 ft | 196 kts | 77° |
| 2026-05-07 18:01 | 51.11047 | -0.46031 | 3393 ft | 187 kts | 77° |
| 2026-05-07 18:01 | 51.11324 | -0.44058 | 3136 ft | 180 kts | 77° |
| 2026-05-07 18:01 | 51.11597 | -0.42122 | 2891 ft | 177 kts | 76° |
| 2026-05-07 18:01 | 51.11866 | -0.40205 | 2664 ft | 177 kts | 77° |
| 2026-05-07 18:02 | 51.12398 | -0.36403 | 2189 ft | 175 kts | 77° |
| 2026-05-07 18:02 | 51.12663 | -0.34509 | 1957 ft | 176 kts | 76° |
| 2026-05-07 18:02 | 51.12914 | -0.32712 | 1730 ft | 179 kts | 77° |
| 2026-05-07 18:03 | 51.13195 | -0.30696 | 1483 ft | 182 kts | 77° |
| 2026-05-07 18:03 | 51.13454 | -0.28837 | 1255 ft | 169 kts | 76° |
| 2026-05-07 18:03 | 51.13701 | -0.27060 | 1038 ft | 164 kts | 77° |
| 2026-05-07 18:03 | 51.13945 | -0.25307 | 825 ft | 161 kts | 76° |
| 2026-05-07 18:04 | 51.14183 | -0.23591 | 613 ft | 158 kts | 77° |
| 2026-05-07 18:04 | 51.14420 | -0.21882 | 405 ft | 157 kts | 77° |
| 2026-05-07 18:04 | 51.14651 | -0.20213 | 218 ft | 151 kts | 77° |
| 2026-05-07 18:04 | 51.14850 | -0.18786 | 206 ft | 112 kts | 77° |
| 2026-05-07 18:05 | 51.14939 | -0.18158 | 210 ft | 25 kts | 77° |
| 2026-05-07 18:05 | 51.15002 | -0.17919 | 218 ft | 23 kts | 58° |
| 2026-05-07 18:05 | 51.15059 | -0.17793 | 216 ft | 11 kts | 49° |
| 2026-05-07 18:05 | 51.15102 | -0.17763 | 211 ft | 1 kts | 4° |
| 2026-05-07 18:06 | 51.15104 | -0.17763 | 211 ft | 0 kts | 2° |
| 2026-05-07 18:06 | 51.15113 | -0.17764 | 208 ft | 3 kts | 357° |
| 2026-05-07 18:06 | 51.15142 | -0.17767 | 206 ft | 5 kts | 354° |
| 2026-05-07 18:06 | 51.15172 | -0.17773 | 209 ft | 0 kts | 353° |
| 2026-05-07 18:07 | 51.15175 | -0.17774 | 213 ft | 0 kts | 353° |
| 2026-05-07 18:07 | 51.15183 | -0.17775 | 213 ft | 2 kts | 353° |
| 2026-05-07 18:07 | 51.15187 | -0.17776 | 213 ft | 1 kts | 353° |
| 2026-05-07 18:08 | 51.15204 | -0.17780 | 209 ft | 4 kts | 352° |
| 2026-05-07 18:08 | 51.15249 | -0.17770 | 214 ft | 9 kts | 33° |
| 2026-05-07 18:08 | 51.15273 | -0.17652 | 205 ft | 14 kts | 76° |
| 2026-05-07 18:08 | 51.15294 | -0.17504 | 208 ft | 9 kts | 80° |
| 2026-05-07 18:09 | 51.15310 | -0.17395 | 212 ft | 12 kts | 54° |
| 2026-05-07 18:09 | 51.15406 | -0.17389 | 210 ft | 17 kts | 347° |
| 2026-05-07 18:09 | 51.15513 | -0.17428 | 215 ft | 12 kts | 347° |
| 2026-05-07 18:09 | 51.15582 | -0.17407 | 213 ft | 11 kts | 58° |
| 2026-05-07 18:10 | 51.15608 | -0.17286 | 213 ft | 13 kts | 76° |
| 2026-05-07 18:10 | 51.15630 | -0.17139 | 209 ft | 15 kts | 77° |
| 2026-05-07 18:10 | 51.15650 | -0.16997 | 215 ft | 9 kts | 78° |
| 2026-05-07 18:10 | 51.15691 | -0.16915 | 211 ft | 11 kts | 33° |
| 2026-05-07 18:11 | 51.15722 | -0.16884 | 213 ft | 2 kts | 31° |
| 2026-05-07 18:11 | 51.15735 | -0.16872 | 214 ft | 2 kts | 30° |
| 2026-05-07 18:11 | 51.15745 | -0.16863 | 210 ft | 0 kts | 30° |